METAR Data

Data at: 1314 UTC 24 May 2022

METAR for:KGNR (Greenville Muni, ME, US)
Text:KGNR 241256Z AUTO 04006KT 11/00 A3036 RMK AO1 SLP288 T01110000
Temperature: 11.1°C ( 52°F)
Dewpoint: 0.0°C ( 32°F) [RH = 46%]
Pressure (altimeter):30.36 inches Hg (1028.2 mb) [Sea level pressure: 1028.8 mb]
Winds:from the NE (40 degrees) at 7 MPH (6 knots; 3.1 m/s)
QC Flag:automated observation with no human augmentation